Time;durP1;ratioP1;P1;durP2;ratioP2;P2;SDS_P1;SDS_P2;PMS_P1;PMS_P2;Temp;Humidity;BMP_temperature;BMP_pressure;BME280_temperature;BME280_humidity;BME280_pressure;Samples;Min_cycle;Max_cycle;Signal;HPM_P1;HPM_P2
2021/11/18 00:00:15;;;;;;;13.00;8.45;;;9.20;82.80;;;;;;5005268;28;20318;-79
2021/11/18 00:02:44;;;;;;;10.80;6.03;;;9.20;82.90;;;;;;4988016;28;20033;-77
2021/11/18 00:05:14;;;;;;;11.63;6.00;;;9.20;82.90;;;;;;4990346;28;20071;-76
2021/11/18 00:07:48;;;;;;;15.80;7.20;;;9.20;82.90;;;;;;5009324;28;20030;-81
2021/11/18 00:10:20;;;;;;;10.15;6.13;;;9.20;82.90;;;;;;5008742;28;20552;-78
2021/11/18 00:12:46;;;;;;;16.05;6.70;;;9.20;82.90;;;;;;5009018;28;20124;-82
2021/11/18 00:15:14;;;;;;;13.38;6.20;;;9.30;83.10;;;;;;4991938;28;20592;-74
2021/11/18 00:17:40;;;;;;;16.70;6.85;;;9.20;82.90;;;;;;4992515;28;20125;-77
2021/11/18 00:20:13;;;;;;;13.70;6.72;;;9.30;83.10;;;;;;5009608;28;20421;-81
2021/11/18 00:22:44;;;;;;;12.15;7.40;;;9.30;83.20;;;;;;5008848;28;20474;-81
2021/11/18 00:25:11;;;;;;;12.60;6.60;;;9.30;83.20;;;;;;4991816;28;20046;-84
2021/11/18 00:27:38;;;;;;;11.68;6.18;;;9.30;83.20;;;;;;5008996;28;20030;-82
2021/11/18 00:30:06;;;;;;;11.73;6.70;;;9.30;83.20;;;;;;5009046;28;20048;-83
2021/11/18 00:32:32;;;;;;;11.93;7.10;;;9.30;83.10;;;;;;4991369;28;20034;-84
2021/11/18 00:34:58;;;;;;;10.98;5.65;;;9.30;83.10;;;;;;5009026;28;20056;-86
2021/11/18 00:37:24;;;;;;;10.55;6.20;;;9.30;83.10;;;;;;4991533;28;20112;-85
2021/11/18 00:39:52;;;;;;;13.23;6.30;;;9.30;83.10;;;;;;5008725;28;20038;-80
2021/11/18 00:42:18;;;;;;;14.00;6.45;;;9.30;83.50;;;;;;5009316;28;20109;-88
2021/11/18 00:44:45;;;;;;;12.45;5.85;;;9.30;83.00;;;;;;4991754;28;20170;-76
2021/11/18 00:47:11;;;;;;;14.30;7.00;;;9.20;82.80;;;;;;4990932;28;20151;-76
2021/11/18 00:49:37;;;;;;;9.77;5.50;;;9.20;82.70;;;;;;5008649;28;20041;-81
2021/11/18 00:52:03;;;;;;;8.98;5.30;;;9.20;82.70;;;;;;4991133;28;20104;-79
2021/11/18 00:54:29;;;;;;;14.35;6.70;;;9.20;82.60;;;;;;4990420;28;20118;-76
2021/11/18 00:56:58;;;;;;;11.68;6.05;;;9.20;82.60;;;;;;4990533;28;20238;-84
2021/11/18 00:59:25;;;;;;;9.98;5.78;;;9.10;82.40;;;;;;4990344;28;20073;-80
2021/11/18 01:01:54;;;;;;;11.80;5.72;;;9.10;82.40;;;;;;4992541;28;20112;-85
2021/11/18 01:04:21;;;;;;;11.98;7.30;;;9.10;82.40;;;;;;4992389;28;20081;-83
2021/11/18 01:06:48;;;;;;;9.93;5.57;;;9.10;82.40;;;;;;5008700;28;20341;-83
2021/11/18 01:09:15;;;;;;;9.98;5.75;;;9.00;82.20;;;;;;4991144;28;20550;-76
2021/11/18 01:11:41;;;;;;;9.45;6.45;;;9.10;82.40;;;;;;4990972;28;20052;-81
2021/11/18 01:14:09;;;;;;;12.20;6.03;;;9.00;82.20;;;;;;4990775;28;20049;-80
2021/11/18 01:16:37;;;;;;;12.90;6.00;;;9.00;82.20;;;;;;4990485;28;20054;-84
2021/11/18 01:19:06;;;;;;;11.20;5.97;;;9.00;82.10;;;;;;4990323;28;20278;-84
2021/11/18 01:21:34;;;;;;;11.80;5.95;;;9.00;82.10;;;;;;4990736;28;20026;-77
2021/11/18 01:24:00;;;;;;;13.00;5.45;;;9.00;82.10;;;;;;4974247;28;20053;-82
2021/11/18 01:26:39;;;;;;;9.15;5.55;;;9.00;82.10;;;;;;4990582;28;20030;-77
2021/11/18 01:29:08;;;;;;;13.00;6.32;;;9.00;82.10;;;;;;4970703;28;20490;-84
2021/11/18 01:31:34;;;;;;;11.35;5.30;;;8.90;81.90;;;;;;4987351;28;20034;-80
2021/11/18 01:34:01;;;;;;;10.82;5.50;;;8.90;81.90;;;;;;5000840;28;20224;-85
2021/11/18 01:36:30;;;;;;;10.13;5.15;;;8.90;81.90;;;;;;4990306;28;20040;-84
2021/11/18 01:39:05;;;;;;;12.90;5.85;;;8.90;81.90;;;;;;4989527;28;20030;-74
2021/11/18 01:41:32;;;;;;;10.43;5.40;;;8.90;82.00;;;;;;4989946;28;20034;-76
2021/11/18 01:44:03;;;;;;;9.90;5.68;;;8.80;81.80;;;;;;4988939;28;20588;-80
2021/11/18 01:46:34;;;;;;;9.50;5.53;;;8.90;82.10;;;;;;4989909;28;20080;-78
2021/11/18 01:49:10;;;;;;;13.27;5.28;;;8.80;81.90;;;;;;4990117;28;20040;-81
2021/11/18 01:51:42;;;;;;;11.88;5.68;;;8.90;82.10;;;;;;5007787;28;20040;-83
2021/11/18 01:54:09;;;;;;;12.20;6.03;;;8.90;82.20;;;;;;4989951;28;20053;-82
2021/11/18 01:56:35;;;;;;;12.70;6.05;;;8.80;82.50;;;;;;4989641;28;20032;-85
2021/11/18 01:59:13;;;;;;;15.07;6.50;;;8.90;82.20;;;;;;4980740;28;20042;-81
2021/11/18 02:01:54;;;;;;;10.80;5.28;;;8.80;82.10;;;;;;4970027;28;20081;-75
2021/11/18 02:04:55;;;;;;;12.30;5.35;;;8.90;82.30;;;;;;4973185;28;20038;-79
2021/11/18 02:07:24;;;;;;;13.60;6.20;;;8.90;82.30;;;;;;4988133;28;20390;-81
2021/11/18 02:09:52;;;;;;;13.25;6.13;;;9.00;82.50;;;;;;4953533;28;20397;-74
2021/11/18 02:12:28;;;;;;;9.48;5.50;;;8.90;82.40;;;;;;4969840;28;20120;-82
2021/11/18 02:14:56;;;;;;;13.57;6.03;;;9.00;82.60;;;;;;4970340;28;20074;-79
2021/11/18 02:17:24;;;;;;;11.95;5.72;;;9.00;82.60;;;;;;4969826;28;20030;-80
2021/11/18 02:19:56;;;;;;;12.52;5.55;;;9.00;82.70;;;;;;4985001;28;20033;-82
2021/11/18 02:22:24;;;;;;;14.15;5.55;;;9.00;82.70;;;;;;5007048;28;20101;-76
2021/11/18 02:24:58;;;;;;;12.15;5.55;;;9.00;82.80;;;;;;4988857;28;20025;-81
2021/11/18 02:27:26;;;;;;;;;;;9.10;82.90;;;;;;4989099;28;20026;-81
2021/11/18 02:29:54;;;;;;;10.05;4.53;;;9.10;82.90;;;;;;4988062;28;20463;-81
2021/11/18 02:32:31;;;;;;;9.40;5.40;;;9.10;82.80;;;;;;4990137;28;20030;-76
2021/11/18 02:35:06;;;;;;;13.38;5.50;;;9.00;82.60;;;;;;4991074;28;20072;-76
2021/11/18 02:37:32;;;;;;;13.30;6.20;;;9.10;82.90;;;;;;5008481;28;20433;-77
2021/11/18 02:39:58;;;;;;;8.63;4.82;;;9.10;82.90;;;;;;5007490;28;20095;-82
2021/11/18 02:42:26;;;;;;;14.27;6.97;;;9.10;82.90;;;;;;4990297;28;20482;-78
2021/11/18 02:44:53;;;;;;;12.20;6.75;;;9.10;82.90;;;;;;4974575;28;20034;-82
2021/11/18 02:47:19;;;;;;;10.07;4.80;;;9.10;82.90;;;;;;4989556;28;20057;-77
2021/11/18 02:49:49;;;;;;;12.30;5.65;;;9.10;82.80;;;;;;5013513;28;20083;-83
2021/11/18 02:52:28;;;;;;;10.65;4.90;;;9.10;82.80;;;;;;5013458;28;20025;-79
2021/11/18 02:55:00;;;;;;;8.13;4.25;;;9.10;82.80;;;;;;5030692;28;20516;-79
2021/11/18 02:57:28;;;;;;;11.93;4.72;;;9.10;82.70;;;;;;5013433;28;20037;-76
2021/11/18 02:59:54;;;;;;;9.10;4.63;;;9.10;82.70;;;;;;5030530;28;20417;-81
2021/11/18 03:02:20;;;;;;;13.25;5.22;;;9.10;82.70;;;;;;5012999;28;20042;-79
2021/11/18 03:04:46;;;;;;;11.55;4.15;;;9.10;82.60;;;;;;5030651;28;20440;-79
2021/11/18 03:07:12;;;;;;;11.50;4.53;;;9.00;82.40;;;;;;5013063;28;20022;-75
2021/11/18 03:09:39;;;;;;;12.07;4.72;;;9.00;82.40;;;;;;4996919;28;20472;-80
2021/11/18 03:12:06;;;;;;;12.48;4.28;;;9.00;82.40;;;;;;5013029;28;20030;-79
2021/11/18 03:14:32;;;;;;;7.50;3.75;;;9.00;82.40;;;;;;5013090;28;20121;-85
2021/11/18 03:16:59;;;;;;;8.73;4.22;;;9.00;82.40;;;;;;5030540;28;20029;-79
2021/11/18 03:19:36;;;;;;;8.02;4.07;;;9.00;82.40;;;;;;5012964;28;20056;-82
2021/11/18 03:22:02;;;;;;;9.02;4.05;;;9.00;82.40;;;;;;5030293;28;20033;-76
2021/11/18 03:24:28;;;;;;;9.05;3.78;;;8.90;82.20;;;;;;5013274;28;20029;-75
2021/11/18 03:26:56;;;;;;;6.63;3.88;;;8.90;82.20;;;;;;5013302;28;20036;-78
2021/11/18 03:29:24;;;;;;;6.68;3.60;;;8.90;82.20;;;;;;5013310;28;20075;-76
2021/11/18 03:31:52;;;;;;;7.47;4.28;;;8.90;82.20;;;;;;5012881;28;20025;-82
2021/11/18 03:34:22;;;;;;;10.20;3.70;;;8.80;82.00;;;;;;5013018;28;20374;-81
2021/11/18 03:36:49;;;;;;;14.60;4.20;;;8.90;82.20;;;;;;5031035;28;20030;-87
2021/11/18 03:39:16;;;;;;;8.93;4.20;;;8.80;82.00;;;;;;5015734;28;20120;-86
2021/11/18 03:41:47;;;;;;;10.90;4.72;;;8.90;82.30;;;;;;5017028;28;20033;-81
2021/11/18 03:44:16;;;;;;;9.13;3.65;;;8.80;82.10;;;;;;5034529;28;20029;-89
2021/11/18 03:46:54;;;;;;;8.75;4.40;;;8.90;82.40;;;;;;5017271;28;20061;-85
2021/11/18 03:49:22;;;;;;;10.25;4.15;;;8.90;82.40;;;;;;5016901;28;20472;-79
2021/11/18 03:51:55;;;;;;;9.90;4.70;;;8.90;82.50;;;;;;5016879;28;20036;-81
2021/11/18 03:54:25;;;;;;;8.77;3.95;;;8.90;82.50;;;;;;5016882;28;20037;-84
2021/11/18 03:56:54;;;;;;;8.95;4.55;;;8.90;82.50;;;;;;5016548;28;20033;-78
2021/11/18 03:59:24;;;;;;;11.80;5.25;;;8.90;82.60;;;;;;5016757;28;20048;-80
2021/11/18 04:01:55;;;;;;;9.07;3.40;;;9.00;82.80;;;;;;5016781;28;20384;-79
2021/11/18 04:04:27;;;;;;;9.45;3.58;;;9.00;82.80;;;;;;5017351;28;20448;-80
2021/11/18 04:06:53;;;;;;;7.90;3.40;;;9.00;82.90;;;;;;5034027;28;20032;-83
2021/11/18 04:09:19;;;;;;;12.60;4.32;;;9.00;82.90;;;;;;5016801;28;20025;-80
2021/11/18 04:11:50;;;;;;;8.15;3.75;;;9.00;82.90;;;;;;5016885;28;20030;-82
2021/11/18 04:14:17;;;;;;;9.35;4.45;;;9.10;83.10;;;;;;5034425;28;20053;-75
2021/11/18 04:16:44;;;;;;;11.30;3.85;;;9.10;83.20;;;;;;5016884;28;20041;-79
2021/11/18 04:19:13;;;;;;;6.70;3.05;;;9.10;83.20;;;;;;5016990;28;20091;-85
2021/11/18 04:21:42;;;;;;;10.38;4.60;;;9.10;83.20;;;;;;5017197;28;20025;-78
2021/11/18 04:24:11;;;;;;;7.05;3.67;;;9.10;83.20;;;;;;5016977;28;20124;-82
2021/11/18 04:26:41;;;;;;;10.63;4.60;;;9.20;83.30;;;;;;5016900;28;20037;-88
2021/11/18 04:29:07;;;;;;;7.18;3.28;;;9.10;83.10;;;;;;5017215;28;20285;-87
2021/11/18 04:31:34;;;;;;;9.25;3.65;;;9.20;83.20;;;;;;5016784;28;20031;-86
2021/11/18 04:34:01;;;;;;;9.60;3.75;;;9.20;83.20;;;;;;5016945;28;20037;-91
2021/11/18 04:36:29;;;;;;;5.78;3.30;;;9.20;83.20;;;;;;5016268;28;20104;-86
2021/11/18 04:38:56;;;;;;;7.72;2.95;;;9.20;83.20;;;;;;5016794;28;20052;-81
2021/11/18 04:41:25;;;;;;;13.88;3.33;;;9.20;83.20;;;;;;5015896;28;20037;-87
2021/11/18 04:43:55;;;;;;;10.10;3.10;;;9.20;83.20;;;;;;5016565;28;20534;-78
2021/11/18 04:46:22;;;;;;;8.05;3.03;;;9.20;83.20;;;;;;5015818;28;20539;-82
2021/11/18 04:48:49;;;;;;;10.02;2.70;;;9.20;83.30;;;;;;5016445;28;20108;-81
2021/11/18 04:51:19;;;;;;;8.00;3.50;;;9.20;83.30;;;;;;5016212;28;20039;-77
2021/11/18 04:53:49;;;;;;;8.88;3.40;;;9.20;83.30;;;;;;5016102;28;20454;-75
2021/11/18 04:56:16;;;;;;;7.78;2.67;;;9.20;83.30;;;;;;5033498;28;20049;-78
2021/11/18 04:58:47;;;;;;;9.65;3.55;;;9.20;83.30;;;;;;5015593;28;20037;-84
2021/11/18 05:01:14;;;;;;;10.15;2.95;;;9.20;83.30;;;;;;4999488;28;20041;-78
2021/11/18 05:03:42;;;;;;;8.77;3.05;;;9.20;83.40;;;;;;5015909;28;20052;-81
2021/11/18 05:06:10;;;;;;;7.80;3.25;;;9.20;83.40;;;;;;5015703;28;20052;-81
2021/11/18 05:08:37;;;;;;;6.97;3.90;;;9.30;83.60;;;;;;5015937;28;20591;-84
2021/11/18 05:11:08;;;;;;;7.53;3.05;;;9.30;83.60;;;;;;5016055;28;20034;-84
2021/11/18 05:13:35;;;;;;;10.45;2.75;;;9.30;83.60;;;;;;5016495;28;20041;-81
2021/11/18 05:16:08;;;;;;;6.25;2.80;;;9.30;83.60;;;;;;5015606;28;20040;-85
2021/11/18 05:18:35;;;;;;;7.78;3.65;;;9.40;83.80;;;;;;5015186;28;20037;-85
2021/11/18 05:21:02;;;;;;;9.13;2.63;;;9.40;83.80;;;;;;5015865;28;20090;-88
2021/11/18 05:23:28;;;;;;;9.27;3.80;;;9.40;83.80;;;;;;5015647;28;20059;-80
2021/11/18 05:25:59;;;;;;;8.00;3.03;;;9.50;84.00;;;;;;5015715;28;20106;-82
2021/11/18 05:28:27;;;;;;;8.68;2.50;;;9.50;84.00;;;;;;5015580;28;20036;-85
2021/11/18 05:30:54;;;;;;;5.97;3.03;;;9.50;84.50;;;;;;4999559;28;20523;-77
2021/11/18 05:33:23;;;;;;;8.10;3.13;;;9.50;84.00;;;;;;5033304;28;20077;-89
2021/11/18 05:35:50;;;;;;;7.20;2.72;;;9.50;84.00;;;;;;5015515;28;20109;-86
2021/11/18 05:38:19;;;;;;;11.10;5.15;;;9.50;84.00;;;;;;5014167;28;20033;-81
2021/11/18 05:40:48;;;;;;;9.55;3.28;;;9.60;84.10;;;;;;5014989;28;20034;-81
2021/11/18 05:43:20;;;;;;;7.03;2.95;;;9.60;84.10;;;;;;5014851;28;20028;-81
2021/11/18 05:45:46;;;;;;;6.18;2.80;;;9.60;84.10;;;;;;5014717;28;20168;-79
2021/11/18 05:48:16;;;;;;;6.20;2.50;;;9.70;84.30;;;;;;4999015;28;20042;-80
2021/11/18 05:50:49;;;;;;;5.22;2.85;;;9.60;84.10;;;;;;4974144;28;20030;-84
2021/11/18 05:53:26;;;;;;;8.02;2.60;;;9.70;84.20;;;;;;4972304;28;20026;-85
2021/11/18 05:55:54;;;;;;;6.25;2.35;;;9.70;84.20;;;;;;4988549;28;20030;-82
2021/11/18 05:58:22;;;;;;;9.50;2.65;;;9.80;84.40;;;;;;4980156;28;20512;-80
2021/11/18 06:00:48;;;;;;;5.90;2.50;;;9.80;84.40;;;;;;4991290;28;20053;-78
2021/11/18 06:03:17;;;;;;;6.75;2.17;;;9.80;84.40;;;;;;4969773;28;20530;-74
2021/11/18 06:05:43;;;;;;;7.32;2.80;;;9.80;84.40;;;;;;4986412;28;20042;-74
2021/11/18 06:08:10;;;;;;;7.00;2.70;;;9.90;84.50;;;;;;4960719;28;20029;-82
2021/11/18 06:10:38;;;;;;;6.03;2.42;;;9.90;84.50;;;;;;4989366;28;20030;-78
2021/11/18 06:13:04;;;;;;;6.28;3.08;;;9.90;84.50;;;;;;5007093;28;20084;-75
2021/11/18 06:15:39;;;;;;;5.82;2.30;;;10.00;84.60;;;;;;4989221;28;20030;-80
2021/11/18 06:18:07;;;;;;;9.48;2.50;;;10.00;84.60;;;;;;4989325;28;20041;-85
2021/11/18 06:20:34;;;;;;;4.97;2.13;;;10.10;84.70;;;;;;4989388;28;20038;-85
2021/11/18 06:23:02;;;;;;;5.05;2.13;;;10.10;84.70;;;;;;4969716;28;20691;-85
2021/11/18 06:25:30;;;;;;;5.95;2.83;;;10.10;84.60;;;;;;4986620;28;20034;-77
2021/11/18 06:27:57;;;;;;;5.22;2.10;;;10.20;84.80;;;;;;4972539;28;20631;-76
2021/11/18 06:30:42;;;;;;;4.97;2.40;;;10.20;84.70;;;;;;4989349;28;20448;-77
2021/11/18 06:33:10;;;;;;;3.63;1.75;;;10.20;84.70;;;;;;4989104;28;20033;-78
2021/11/18 06:35:37;;;;;;;5.25;2.30;;;10.20;84.70;;;;;;4988606;28;20034;-79
2021/11/18 06:38:05;;;;;;;5.07;2.17;;;10.30;84.90;;;;;;4988982;28;20030;-79
2021/11/18 06:40:31;;;;;;;6.70;2.35;;;10.30;84.90;;;;;;4988477;28;20493;-82
2021/11/18 06:42:57;;;;;;;4.70;2.60;;;10.40;85.10;;;;;;4988746;28;20481;-76
2021/11/18 06:45:36;;;;;;;6.45;2.65;;;10.40;85.00;;;;;;4989304;28;20164;-76
2021/11/18 06:48:09;;;;;;;6.30;2.20;;;10.40;85.10;;;;;;5008423;28;20045;-79
2021/11/18 06:50:35;;;;;;;3.75;1.67;;;10.40;85.00;;;;;;5008515;28;20057;-76
2021/11/18 06:53:08;;;;;;;5.60;2.20;;;10.50;85.10;;;;;;4993359;28;20041;-77
2021/11/18 06:55:34;;;;;;;5.97;2.50;;;10.50;85.10;;;;;;5027969;28;20036;-80
2021/11/18 06:58:00;;;;;;;5.53;2.33;;;10.50;85.10;;;;;;5008446;28;20057;-76
2021/11/18 07:00:27;;;;;;;6.20;1.98;;;10.50;85.10;;;;;;5025994;28;20572;-76
2021/11/18 07:02:54;;;;;;;4.40;1.80;;;10.50;85.00;;;;;;4992317;28;20171;-79
2021/11/18 07:05:21;;;;;;;5.55;2.33;;;10.60;85.20;;;;;;5008384;28;20071;-77
2021/11/18 07:07:47;;;;;;;5.93;2.15;;;10.60;85.20;;;;;;5008574;28;20034;-83
2021/11/18 07:10:14;;;;;;;7.28;3.97;;;10.60;85.10;;;;;;5007523;28;20380;-79
2021/11/18 07:13:00;;;;;;;6.97;4.15;;;10.70;86.00;;;;;;4999296;28;20046;-76
2021/11/18 07:15:27;;;;;;;13.52;3.47;;;10.80;85.80;;;;;;4992305;28;20396;-78
2021/11/18 07:17:57;;;;;;;6.28;3.03;;;10.80;85.90;;;;;;4997064;28;20589;-76
2021/11/18 07:20:24;;;;;;;6.05;2.45;;;10.80;86.00;;;;;;5012440;28;20566;-76
2021/11/18 07:22:50;;;;;;;9.35;3.05;;;10.90;86.20;;;;;;5004657;28;20026;-77
2021/11/18 07:25:26;;;;;;;7.63;2.65;;;10.90;86.30;;;;;;4977502;28;20117;-79
2021/11/18 07:27:56;;;;;;;6.47;2.13;;;11.00;86.50;;;;;;4992439;28;20034;-78
2021/11/18 07:30:23;;;;;;;4.85;2.90;;;11.00;86.50;;;;;;4976430;28;20036;-83
2021/11/18 07:32:52;;;;;;;4.45;1.88;;;11.00;86.50;;;;;;4992143;28;20685;-79
2021/11/18 07:35:23;;;;;;;4.95;1.85;;;11.00;86.50;;;;;;4992530;28;20061;-75
2021/11/18 07:37:49;;;;;;;4.93;2.15;;;11.10;86.60;;;;;;4992258;28;20021;-76
2021/11/18 07:40:19;;;;;;;6.45;3.03;;;11.10;86.60;;;;;;4991274;28;20381;-76
2021/11/18 07:42:48;;;;;;;5.60;2.83;;;11.10;86.50;;;;;;4997987;28;20108;-78
2021/11/18 07:45:47;;;;;;;3.47;1.70;;;11.10;86.50;;;;;;4989398;28;20411;-79
2021/11/18 07:48:28;;;;;;;6.25;3.15;;;11.10;86.50;;;;;;4989815;28;20049;-78
2021/11/18 07:50:56;;;;;;;5.10;1.90;;;11.10;86.40;;;;;;4984956;28;20049;-77
2021/11/18 07:53:24;;;;;;;6.97;1.88;;;11.10;86.40;;;;;;4991793;28;20661;-77
2021/11/18 07:55:51;;;;;;;5.35;1.95;;;11.20;86.50;;;;;;4991343;28;20034;-78
2021/11/18 07:58:19;;;;;;;6.05;2.22;;;11.20;86.50;;;;;;4991594;28;20030;-77
2021/11/18 08:00:49;;;;;;;4.00;1.90;;;11.20;86.40;;;;;;4991783;28;20049;-80
2021/11/18 08:03:24;;;;;;;3.55;1.90;;;11.20;86.40;;;;;;4991594;28;20026;-77
2021/11/18 08:06:17;;;;;;;3.72;1.85;;;11.20;86.30;;;;;;5000560;28;20049;-77
2021/11/18 08:08:48;;;;;;;4.40;2.17;;;11.20;86.20;;;;;;4991245;28;20029;-78
2021/11/18 08:11:25;;;;;;;4.75;1.88;;;11.30;86.40;;;;;;4991137;28;20041;-76
2021/11/18 08:13:56;;;;;;;7.75;2.22;;;11.30;86.40;;;;;;4990534;28;20026;-76
2021/11/18 08:16:22;;;;;;;4.53;1.58;;;11.40;86.50;;;;;;4991432;28;20034;-78
2021/11/18 08:18:55;;;;;;;4.50;1.67;;;11.30;86.20;;;;;;4991202;28;20033;-77
2021/11/18 08:21:23;;;;;;;2.40;1.65;;;11.40;86.30;;;;;;4989541;28;20042;-77
2021/11/18 08:23:51;;;;;;;8.70;2.20;;;11.40;86.30;;;;;;4960410;28;20367;-83
2021/11/18 08:26:21;;;;;;;3.35;1.35;;;11.40;86.30;;;;;;4970925;28;20039;-76
2021/11/18 08:28:48;;;;;;;5.65;2.42;;;11.50;86.40;;;;;;4977219;28;20493;-77
2021/11/18 08:31:17;;;;;;;3.58;1.88;;;11.50;86.30;;;;;;4972702;28;20034;-83
2021/11/18 08:34:23;;;;;;;7.78;3.95;;;11.50;86.20;;;;;;4997286;28;20037;-78
2021/11/18 08:36:51;;;;;;;4.75;2.08;;;11.60;86.30;;;;;;4975218;28;20045;-80
2021/11/18 08:39:22;;;;;;;4.07;1.50;;;11.60;86.30;;;;;;4990867;28;20104;-77
2021/11/18 08:41:52;;;;;;;4.57;1.58;;;11.60;86.20;;;;;;4991137;28;20026;-79
2021/11/18 08:44:21;;;;;;;5.25;1.80;;;11.70;86.30;;;;;;4990702;28;20041;-78
2021/11/18 08:46:49;;;;;;;7.30;2.63;;;11.70;86.30;;;;;;4998965;28;20426;-80
2021/11/18 08:49:20;;;;;;;3.15;1.45;;;11.70;86.20;;;;;;5005914;28;20034;-81
2021/11/18 08:51:46;;;;;;;3.60;1.70;;;11.70;86.20;;;;;;5009627;28;20075;-77
2021/11/18 08:54:19;;;;;;;3.40;1.70;;;11.70;86.10;;;;;;5010023;28;20029;-78
2021/11/18 08:56:51;;;;;;;3.83;1.57;;;11.70;86.10;;;;;;5010576;28;20036;-76
2021/11/18 08:59:18;;;;;;;3.88;2.20;;;11.70;86.00;;;;;;5010005;28;20098;-76
2021/11/18 09:01:53;;;;;;;7.65;1.80;;;11.80;86.20;;;;;;4994005;28;20033;-76
2021/11/18 09:04:22;;;;;;;4.25;1.85;;;11.80;86.10;;;;;;4990443;28;20448;-77
2021/11/18 09:06:50;;;;;;;2.85;1.50;;;11.80;86.10;;;;;;4990649;28;20481;-78
2021/11/18 09:09:19;;;;;;;4.93;2.20;;;11.80;86.00;;;;;;5010055;28;20501;-80
2021/11/18 09:11:46;;;;;;;4.05;1.70;;;11.90;86.10;;;;;;5027621;28;20029;-78
2021/11/18 09:14:14;;;;;;;5.22;1.70;;;11.90;86.10;;;;;;5027221;28;20038;-77
2021/11/18 09:16:41;;;;;;;6.60;1.80;;;11.90;86.00;;;;;;5009745;28;20026;-79
2021/11/18 09:19:21;;;;;;;3.78;1.98;;;11.90;86.00;;;;;;5003348;28;20033;-77
2021/11/18 09:21:50;;;;;;;4.53;1.40;;;12.00;86.10;;;;;;5010217;28;20087;-77
2021/11/18 09:24:18;;;;;;;2.47;1.92;;;12.00;86.10;;;;;;5028206;28;20116;-79
2021/11/18 09:26:49;;;;;;;4.65;1.75;;;12.00;86.00;;;;;;5009082;28;20080;-80
2021/11/18 09:29:17;;;;;;;4.93;1.80;;;12.10;86.10;;;;;;4995345;28;20045;-80
2021/11/18 09:31:59;;;;;;;4.30;1.70;;;12.10;86.10;;;;;;5007703;28;20033;-79
2021/11/18 09:34:27;;;;;;;3.20;1.15;;;12.10;86.00;;;;;;4990050;28;20034;-77
2021/11/18 09:36:54;;;;;;;3.85;1.63;;;12.20;86.10;;;;;;4989825;28;20030;-77
2021/11/18 09:39:22;;;;;;;3.33;1.52;;;12.20;86.00;;;;;;5023181;28;20496;-76
2021/11/18 09:42:24;;;;;;;4.07;2.00;;;12.20;86.00;;;;;;5010169;28;20029;-79
2021/11/18 09:45:15;;;;;;;4.32;1.58;;;12.30;86.00;;;;;;5008444;28;20492;-78
2021/11/18 09:48:08;;;;;;;6.07;1.73;;;12.40;86.10;;;;;;5009441;28;20041;-82
2021/11/18 09:51:19;;;;;;;2.55;1.95;;;12.40;86.00;;;;;;5009751;28;20038;-81
2021/11/18 09:54:19;;;;;;;2.10;1.50;;;12.50;86.10;;;;;;5026385;28;20277;-76
2021/11/18 09:57:48;;;;;;;3.72;1.58;;;12.60;86.20;;;;;;5009399;28;20489;-78
2021/11/18 10:00:43;;;;;;;3.25;1.38;;;12.60;86.00;;;;;;4965491;28;20042;-80
2021/11/18 10:03:31;;;;;;;3.38;1.65;;;12.70;86.00;;;;;;5009151;28;20040;-81
2021/11/18 10:06:28;;;;;;;3.08;1.58;;;12.70;86.00;;;;;;5009191;28;20025;-77
2021/11/18 10:09:13;;;;;;;3.88;1.60;;;12.80;86.10;;;;;;5008813;28;20091;-78
2021/11/18 10:12:19;;;;;;;2.42;1.30;;;12.80;86.00;;;;;;5008565;28;20111;-78
2021/11/18 10:14:51;;;;;;;5.93;1.67;;;12.80;85.90;;;;;;5008697;28;20033;-76
2021/11/18 10:17:20;;;;;;;4.10;1.88;;;12.90;86.00;;;;;;5008955;28;20037;-76
2021/11/18 10:20:23;;;;;;;4.53;1.40;;;12.90;86.00;;;;;;5008288;28;20516;-79
2021/11/18 10:23:11;;;;;;;3.58;1.60;;;12.90;85.80;;;;;;4996470;28;20045;-76
2021/11/18 10:26:09;;;;;;;3.22;1.70;;;13.00;86.00;;;;;;5009265;28;20116;-75
2021/11/18 10:29:01;;;;;;;2.33;1.20;;;13.00;85.80;;;;;;5025284;28;20044;-77
2021/11/18 10:31:49;;;;;;;3.53;1.40;;;13.10;86.00;;;;;;4992109;28;20053;-78
2021/11/18 10:34:18;;;;;;;3.08;1.20;;;13.10;85.90;;;;;;5008376;28;20447;-76
2021/11/18 10:36:49;;;;;;;2.78;1.30;;;13.10;85.80;;;;;;5025001;28;20096;-81
2021/11/18 10:39:21;;;;;;;1.90;1.20;;;13.10;85.80;;;;;;5018973;28;20041;-76
2021/11/18 10:42:20;;;;;;;2.65;1.73;;;13.10;85.80;;;;;;5003193;28;20459;-75
2021/11/18 10:44:52;;;;;;;2.63;1.38;;;13.20;85.90;;;;;;5026179;28;20041;-77
2021/11/18 10:47:23;;;;;;;2.97;1.50;;;13.20;85.80;;;;;;5025929;28;20115;-77
2021/11/18 10:50:00;;;;;;;4.40;1.80;;;13.30;85.90;;;;;;5026082;28;20103;-76
2021/11/18 10:52:36;;;;;;;2.42;1.20;;;13.30;85.90;;;;;;5026077;28;20144;-76
2021/11/18 10:55:13;;;;;;;6.32;2.53;;;13.40;86.00;;;;;;5026537;28;20036;-79
2021/11/18 10:58:20;;;;;;;3.47;1.98;;;13.30;85.70;;;;;;5008598;28;20044;-78
2021/11/18 11:00:58;;;;;;;2.92;1.10;;;13.40;85.80;;;;;;5008612;28;20062;-77
2021/11/18 11:03:34;;;;;;;4.57;1.48;;;13.40;85.80;;;;;;5015243;28;20034;-76
2021/11/18 11:06:20;;;;;;;2.60;1.50;;;13.40;85.80;;;;;;4988957;28;20487;-75
2021/11/18 11:08:53;;;;;;;1.67;1.42;;;13.40;85.70;;;;;;4971503;28;20045;-75
2021/11/18 11:11:48;;;;;;;3.22;1.20;;;13.50;85.90;;;;;;5006434;28;20128;-79
2021/11/18 11:14:41;;;;;;;3.35;1.55;;;13.50;85.80;;;;;;5005353;28;20036;-82
2021/11/18 11:17:38;;;;;;;4.65;1.65;;;13.60;85.90;;;;;;5005688;28;20048;-74
2021/11/18 11:20:21;;;;;;;2.67;1.23;;;13.60;85.80;;;;;;5005957;28;20481;-79
2021/11/18 11:23:16;;;;;;;3.03;1.40;;;13.70;85.90;;;;;;5011704;28;20044;-81
2021/11/18 11:26:00;;;;;;;2.35;1.20;;;13.70;85.80;;;;;;4996966;28;20041;-78
2021/11/18 11:29:06;;;;;;;5.75;2.17;;;13.70;85.80;;;;;;5012603;28;20040;-78
2021/11/18 11:32:07;;;;;;;6.07;1.55;;;13.80;85.90;;;;;;5008166;28;20458;-78
2021/11/18 11:34:50;;;;;;;4.88;1.38;;;13.90;85.90;;;;;;5025133;28;20037;-82
2021/11/18 11:37:37;;;;;;;4.30;1.10;;;14.00;86.00;;;;;;5025421;28;20413;-79
2021/11/18 11:40:14;;;;;;;2.88;1.20;;;14.10;85.90;;;;;;4991375;28;20452;-83
2021/11/18 11:42:40;;;;;;;2.67;1.15;;;14.20;85.90;;;;;;5007650;28;20653;-79
2021/11/18 11:45:18;;;;;;;2.70;1.45;;;14.30;86.00;;;;;;5025975;28;20221;-76
2021/11/18 11:48:04;;;;;;;2.63;1.13;;;14.40;86.00;;;;;;5007601;28;20049;-83
2021/11/18 11:51:09;;;;;;;3.67;1.20;;;14.40;85.90;;;;;;5025955;28;20032;-79
2021/11/18 11:54:12;;;;;;;1.90;1.38;;;14.40;85.90;;;;;;5007956;28;20033;-81
2021/11/18 11:56:48;;;;;;;3.53;1.20;;;14.50;85.90;;;;;;5007934;28;20086;-81
2021/11/18 11:59:23;;;;;;;2.53;1.33;;;14.60;86.00;;;;;;5008047;28;20563;-81
2021/11/18 12:02:07;;;;;;;2.95;1.30;;;14.70;86.10;;;;;;5029272;28;20037;-75
2021/11/18 12:04:52;;;;;;;1.95;1.17;;;14.70;85.90;;;;;;5010796;28;20095;-77
2021/11/18 12:07:53;;;;;;;3.85;1.20;;;14.80;86.00;;;;;;5029103;28;20065;-78
2021/11/18 12:10:28;;;;;;;2.45;1.25;;;14.80;85.90;;;;;;5029374;28;20026;-80
2021/11/18 12:13:38;;;;;;;1.20;1.08;;;14.80;85.80;;;;;;5028447;28;20049;-79
2021/11/18 12:16:21;;;;;;;2.40;1.58;;;14.90;86.00;;;;;;4993258;28;20040;-77
2021/11/18 12:18:56;;;;;;;1.83;1.10;;;15.00;86.20;;;;;;5002699;28;20064;-78
2021/11/18 12:21:23;;;;;;;6.53;1.10;;;15.00;86.10;;;;;;5028518;28;20095;-79
2021/11/18 12:24:11;;;;;;;9.05;2.85;;;15.10;86.20;;;;;;5027742;28;20477;-79
2021/11/18 12:26:49;;;;;;;4.22;1.50;;;15.20;86.30;;;;;;5010796;28;20400;-79
2021/11/18 12:29:21;;;;;;;2.53;0.80;;;15.30;86.30;;;;;;5028750;28;20061;-80
2021/11/18 12:32:08;;;;;;;3.92;1.17;;;15.30;86.20;;;;;;5027902;28;20038;-79
2021/11/18 12:34:53;;;;;;;3.45;1.55;;;15.40;86.20;;;;;;5010429;28;20111;-78
2021/11/18 12:38:13;;;;;;;2.50;1.15;;;15.50;86.20;;;;;;5028488;28;20033;-78
2021/11/18 12:41:01;;;;;;;1.95;0.90;;;15.50;86.10;;;;;;5010911;28;20053;-79
2021/11/18 12:44:04;;;;;;;2.75;1.15;;;15.60;86.20;;;;;;5027614;28;20040;-79
2021/11/18 12:46:51;;;;;;;;;;;15.60;86.10;;;;;;5004262;28;20486;-78
2021/11/18 12:49:20;;;;;;;3.05;0.80;;;15.70;86.30;;;;;;5008570;28;19956;-79
2021/11/18 12:52:10;;;;;;;3.45;1.20;;;15.80;86.30;;;;;;5008297;28;20025;-75
2021/11/18 12:54:43;;;;;;;1.75;1.60;;;15.80;86.20;;;;;;4971917;28;20046;-75
2021/11/18 12:57:29;;;;;;;3.78;1.50;;;15.80;86.10;;;;;;4988589;28;20031;-78
2021/11/18 13:00:09;;;;;;;1.27;0.70;;;16.00;86.30;;;;;;5007512;28;20128;-78
2021/11/18 13:02:41;;;;;;;2.42;1.27;;;16.00;86.10;;;;;;4990608;28;20037;-76
2021/11/18 13:05:10;;;;;;;2.30;0.93;;;16.00;86.00;;;;;;5008998;28;20034;-76
2021/11/18 13:07:48;;;;;;;4.25;1.77;;;16.10;86.00;;;;;;5007940;28;20036;-78
2021/11/18 13:10:20;;;;;;;2.03;0.82;;;16.10;85.90;;;;;;4969450;28;20042;-80
2021/11/18 13:13:03;;;;;;;3.08;1.58;;;16.10;85.80;;;;;;4998849;28;20497;-80
2021/11/18 13:15:58;;;;;;;1.73;0.75;;;16.10;85.70;;;;;;4971035;28;20038;-75
2021/11/18 13:18:28;;;;;;;2.00;1.30;;;16.20;85.80;;;;;;4998200;28;20037;-81
2021/11/18 13:21:16;;;;;;;1.38;0.95;;;16.20;85.80;;;;;;4974161;28;20037;-81
2021/11/18 13:23:51;;;;;;;1.80;1.35;;;16.30;85.90;;;;;;4990280;28;20501;-76